Maersk Boston — OZDB2 — position and weather

sailwx.info

Track history (hours):
 
Tides and Currents Weather Stations Pressure Air Temp Water Temp Dewpoint Dewpoint Depression Visibility Wind Speed Wind Dir Waves Ship Positions

Maersk Boston

Last reported at 2018-Jul-16 23:30 UTC. Time now 2018-Jul-17 00:11 UTC.
Position N 32°56' E 034°31'.

Length 294 m; draft 11.8 m.

Type: Ship (hazmat cat A). MMSI: 219216000.

Date/timePositionNaut miles runAvg speedWind from/ knotsBaromVisibWave heightAir tempDewpointWater temp
2018-Jul-16 23:30N 32°56' E 034°31'1017.4
2018-Jul-16 22:54N 32°58' E 034°19'717.3
2018-Jul-16 22:30N 32°59' E 034°11'917.4
2018-Jul-16 22:00N 33°01' E 034°01'916.9
2018-Jul-16 21:28N 32°58' E 033°51'817.4
2018-Jul-16 21:00N 32°55' E 033°42'917.3
2018-Jul-16 20:30N 32°52' E 033°32'917.4
2018-Jul-16 20:00N 32°49' E 033°22'917.4
2018-Jul-16 19:30N 32°46' E 033°13'917.2
2018-Jul-16 19:00N 32°43' E 033°03'917.1
2018-Jul-16 18:30N 32°40' E 032°53'1217.0
2018-Jul-16 17:49N 32°36' E 032°41'516.6
2018-Jul-16 17:30N 32°34' E 032°35'816.5
2018-Jul-16 17:00N 32°31' E 032°26'816.3
2018-Jul-16 16:30N 32°28' E 032°17'816.4
2018-Jul-16 16:00N 32°25' E 032°08'816.6
2018-Jul-16 15:30N 32°22' E 031°58'2516.8
2018-Jul-16 14:02N 32°13' E 031°31'317.2
2018-Jul-16 13:52N 32°12' E 031°28'4817.2
2018-Jul-16 11:04N 31°58' E 030°34'118.0
2018-Jul-16 11:00N 31°58' E 030°32'  
2018-Jul-13 20:28N 32°09' E 033°19'715.4
2018-Jul-13 20:00N 32°09' E 033°27'815.5
2018-Jul-13 19:30N 32°09' E 033°37'815.9
2018-Jul-13 19:01N 32°08' E 033°46'1315.7
2018-Jul-13 18:11N 32°04' E 034°00'415.9
2018-Jul-13 17:56N 32°02' E 034°05'3015.5
2018-Jul-13 16:01N 31°52' E 034°37'012.9
2018-Jul-13 15:59N 31°52' E 034°38'0 0.0
2018-Jul-12 20:28N 31°52' E 034°38'116 4.6
2018-Jul-11 19:00N 33°30' E 033°24'6812.4 280 / 171008.710.8 25.021.226.0
2018-Jul-11 13:31N 34°36' E 033°05'111.8
2018-Jul-11 13:27N 34°37' E 033°04'3 6.9
2018-Jul-11 13:00N 34°39' E 033°02'1 1.0
2018-Jul-11 12:28N 34°39' E 033°01'0 0.0
2018-Jul-11 11:58N 34°39' E 033°01'0 0.0
2018-Jul-11 11:28N 34°39' E 033°01'0 0.0
2018-Jul-11 10:58N 34°39' E 033°01'0 0.0
2018-Jul-11 10:28N 34°39' E 033°01'0 0.0
2018-Jul-11 09:58N 34°39' E 033°01'0 0.0
2018-Jul-11 09:28N 34°39' E 033°01'0 0.0
2018-Jul-11 08:58N 34°39' E 033°01'0 0.0
2018-Jul-11 08:25N 34°39' E 033°01'0 0.0
2018-Jul-11 07:58N 34°39' E 033°01'0 0.0
2018-Jul-11 07:28N 34°39' E 033°01'0 0.0
2018-Jul-11 06:58N 34°39' E 033°01'0 0.0
2018-Jul-11 06:28N 34°39' E 033°01'0 0.0
2018-Jul-11 05:58N 34°39' E 033°01'0 0.0
2018-Jul-11 05:28N 34°39' E 033°01'0 0.0
2018-Jul-11 04:58N 34°39' E 033°01'0 0.0
2018-Jul-11 04:28N 34°39' E 033°01'0 0.0
2018-Jul-11 03:58N 34°39' E 033°01'0 0.0
2018-Jul-11 03:28N 34°39' E 033°01'0 0.0
2018-Jul-11 02:58N 34°39' E 033°01'0 0.0
2018-Jul-11 02:28N 34°39' E 033°01'0 0.0
2018-Jul-11 01:58N 34°39' E 033°01'0 0.0
2018-Jul-11 01:28N 34°39' E 033°01'0 0.0
2018-Jul-11 00:58N 34°39' E 033°01'0 0.0
2018-Jul-11 00:28N 34°39' E 033°01'0 0.0
2018-Jul-10 23:58N 34°39' E 033°01'0 0.0
2018-Jul-10 23:28N 34°39' E 033°01'0 0.0
2018-Jul-10 22:58N 34°39' E 033°01'0 0.0
2018-Jul-10 22:28N 34°39' E 033°01'0 0.0
2018-Jul-10 21:58N 34°39' E 033°01'0 0.0
2018-Jul-10 21:25N 34°39' E 033°01'0 0.0
2018-Jul-10 20:58N 34°39' E 033°01'0 0.0
2018-Jul-10 20:28N 34°39' E 033°01'0 0.0
2018-Jul-10 19:58N 34°39' E 033°01'0 0.3
2018-Jul-10 19:31N 34°39' E 033°01'3 5.8
2018-Jul-10 18:59N 34°39' E 033°05'4 7.4
2018-Jul-10 18:27N 34°35' E 033°06'12919.9
2018-Jul-10 12:00N 34°30' E 030°30'10420.8 280 / 141010.6 5.4 27.022.627.0
2018-Jul-10 07:00N 34°30' E 028°24'7919.8 290 / 51010.7 5.4 26.022.326.0
2018-Jul-10 03:00N 34°30' E 026°48'14320.5 360 / 91009.710.8 25.022.225.0
2018-Jul-09 20:00N 34°30' E 023°54'6020.2 290 / 201011.8 5.4 24.021.026.0
2018-Jul-09 17:00N 34°42' E 022°42'17219.1 320 / 191011.310.8 25.020.625.0
2018-Jul-09 08:00N 35°24' E 019°18'4013.2 320 / 111013.9 5.4 25.521.026.0
2018-Jul-09 05:00N 35°30' E 018°30'6516.1 310 / 91012.910.8 25.221.925.0
2018-Jul-09 01:00N 35°42' E 017°12'7515.0 310 / 101013.310.8 25.022.026.0
2018-Jul-08 20:00N 36°00' E 015°42'3417.2 290 / 81014.4 5.4 25.020.425.0
2018-Jul-08 18:00N 36°06' E 015°00'7815.7 280 / 51013.510.8 27.021.025.0
2018-Jul-08 13:00N 36°36' E 013°30'8116.1 290 / 161018.2 5.4 24.019.421.0
2018-Jul-08 08:00N 37°00' E 011°54'5814.4 270 / 51016.1 5.4 26.021.524.0
2018-Jul-08 04:00N 37°24' E 010°48'8015.7 310 / 131015.810.8 23.021.525.0
2018-Jul-07 22:55N 37°38' E 009°09'6015.3
2018-Jul-07 19:00N 37°30' E 007°54'6215.6 070 / 61017.6 5.4 25.020.425.0
2018-Jul-07 15:00N 37°24' E 006°36'10114.4 080 / 141018.610.8 27.020.725.0
2018-Jul-07 08:00N 37°12' E 004°30'4816.1 100 / 221017.9 5.4 26.019.025.0
2018-Jul-07 05:00N 37°06' E 003°30'2713.2 090 / 201016.010.8 26.022.324.0
2018-Jul-07 02:57N 37°02' E 002°57'715.3
2018-Jul-07 02:30N 37°01' E 002°48'815.3
2018-Jul-07 01:59N 36°59' E 002°38'815.5
2018-Jul-07 01:26N 36°57' E 002°28'715.5
2018-Jul-07 01:00N 36°56' E 002°20'  
Track history (hours):
 
Tides and Currents Weather Stations Pressure Air Temp Water Temp Dewpoint Dewpoint Depression Visibility Wind Speed Wind Dir Waves Ship Positions

Maersk Boston

Last reported at 2018-Jul-16 23:30 UTC. Time now 2018-Jul-17 00:11 UTC.
Position N 32°56' E 034°31'.

Length 294 m; draft 11.8 m.

Type: Ship (hazmat cat A). MMSI: 219216000.

Date/timePositionNaut miles runAvg speedWind from/ knotsBaromVisibWave heightAir tempDewpointWater temp
2018-Jul-16 23:30N 32°56' E 034°31'1017.4
2018-Jul-16 22:54N 32°58' E 034°19'717.3
2018-Jul-16 22:30N 32°59' E 034°11'917.4
2018-Jul-16 22:00N 33°01' E 034°01'916.9
2018-Jul-16 21:28N 32°58' E 033°51'817.4
2018-Jul-16 21:00N 32°55' E 033°42'917.3
2018-Jul-16 20:30N 32°52' E 033°32'917.4
2018-Jul-16 20:00N 32°49' E 033°22'917.4
2018-Jul-16 19:30N 32°46' E 033°13'917.2
2018-Jul-16 19:00N 32°43' E 033°03'917.1
2018-Jul-16 18:30N 32°40' E 032°53'1217.0
2018-Jul-16 17:49N 32°36' E 032°41'516.6
2018-Jul-16 17:30N 32°34' E 032°35'816.5
2018-Jul-16 17:00N 32°31' E 032°26'816.3
2018-Jul-16 16:30N 32°28' E 032°17'816.4
2018-Jul-16 16:00N 32°25' E 032°08'816.6
2018-Jul-16 15:30N 32°22' E 031°58'2516.8
2018-Jul-16 14:02N 32°13' E 031°31'317.2
2018-Jul-16 13:52N 32°12' E 031°28'4817.2
2018-Jul-16 11:04N 31°58' E 030°34'118.0
2018-Jul-16 11:00N 31°58' E 030°32'  
2018-Jul-13 20:28N 32°09' E 033°19'715.4
2018-Jul-13 20:00N 32°09' E 033°27'815.5
2018-Jul-13 19:30N 32°09' E 033°37'815.9
2018-Jul-13 19:01N 32°08' E 033°46'1315.7
2018-Jul-13 18:11N 32°04' E 034°00'415.9
2018-Jul-13 17:56N 32°02' E 034°05'3015.5
2018-Jul-13 16:01N 31°52' E 034°37'012.9
2018-Jul-13 15:59N 31°52' E 034°38'0 0.0
2018-Jul-12 20:28N 31°52' E 034°38'116 4.6
2018-Jul-11 19:00N 33°30' E 033°24'6812.4 280 / 171008.710.8 25.021.226.0
2018-Jul-11 13:31N 34°36' E 033°05'111.8
2018-Jul-11 13:27N 34°37' E 033°04'3 6.9
2018-Jul-11 13:00N 34°39' E 033°02'1 1.0
2018-Jul-11 12:28N 34°39' E 033°01'0 0.0
2018-Jul-11 11:58N 34°39' E 033°01'0 0.0
2018-Jul-11 11:28N 34°39' E 033°01'0 0.0
2018-Jul-11 10:58N 34°39' E 033°01'0 0.0
2018-Jul-11 10:28N 34°39' E 033°01'0 0.0
2018-Jul-11 09:58N 34°39' E 033°01'0 0.0
2018-Jul-11 09:28N 34°39' E 033°01'0 0.0
2018-Jul-11 08:58N 34°39' E 033°01'0 0.0
2018-Jul-11 08:25N 34°39' E 033°01'0 0.0
2018-Jul-11 07:58N 34°39' E 033°01'0 0.0
2018-Jul-11 07:28N 34°39' E 033°01'0 0.0
2018-Jul-11 06:58N 34°39' E 033°01'0 0.0
2018-Jul-11 06:28N 34°39' E 033°01'0 0.0
2018-Jul-11 05:58N 34°39' E 033°01'0 0.0
2018-Jul-11 05:28N 34°39' E 033°01'0 0.0
2018-Jul-11 04:58N 34°39' E 033°01'0 0.0
2018-Jul-11 04:28N 34°39' E 033°01'0 0.0
2018-Jul-11 03:58N 34°39' E 033°01'0 0.0
2018-Jul-11 03:28N 34°39' E 033°01'0 0.0
2018-Jul-11 02:58N 34°39' E 033°01'0 0.0
2018-Jul-11 02:28N 34°39' E 033°01'0 0.0
2018-Jul-11 01:58N 34°39' E 033°01'0 0.0
2018-Jul-11 01:28N 34°39' E 033°01'0 0.0
2018-Jul-11 00:58N 34°39' E 033°01'0 0.0
2018-Jul-11 00:28N 34°39' E 033°01'0 0.0
2018-Jul-10 23:58N 34°39' E 033°01'0 0.0
2018-Jul-10 23:28N 34°39' E 033°01'0 0.0
2018-Jul-10 22:58N 34°39' E 033°01'0 0.0
2018-Jul-10 22:28N 34°39' E 033°01'0 0.0
2018-Jul-10 21:58N 34°39' E 033°01'0 0.0
2018-Jul-10 21:25N 34°39' E 033°01'0 0.0
2018-Jul-10 20:58N 34°39' E 033°01'0 0.0
2018-Jul-10 20:28N 34°39' E 033°01'0 0.0
2018-Jul-10 19:58N 34°39' E 033°01'0 0.3
2018-Jul-10 19:31N 34°39' E 033°01'3 5.8
2018-Jul-10 18:59N 34°39' E 033°05'4 7.4
2018-Jul-10 18:27N 34°35' E 033°06'12919.9
2018-Jul-10 12:00N 34°30' E 030°30'10420.8 280 / 141010.6 5.4 27.022.627.0
2018-Jul-10 07:00N 34°30' E 028°24'7919.8 290 / 51010.7 5.4 26.022.326.0
2018-Jul-10 03:00N 34°30' E 026°48'14320.5 360 / 91009.710.8 25.022.225.0
2018-Jul-09 20:00N 34°30' E 023°54'6020.2 290 / 201011.8 5.4 24.021.026.0
2018-Jul-09 17:00N 34°42' E 022°42'17219.1 320 / 191011.310.8 25.020.625.0
2018-Jul-09 08:00N 35°24' E 019°18'4013.2 320 / 111013.9 5.4 25.521.026.0
2018-Jul-09 05:00N 35°30' E 018°30'6516.1 310 / 91012.910.8 25.221.925.0
2018-Jul-09 01:00N 35°42' E 017°12'7515.0 310 / 101013.310.8 25.022.026.0
2018-Jul-08 20:00N 36°00' E 015°42'3417.2 290 / 81014.4 5.4 25.020.425.0
2018-Jul-08 18:00N 36°06' E 015°00'7815.7 280 / 51013.510.8 27.021.025.0
2018-Jul-08 13:00N 36°36' E 013°30'8116.1 290 / 161018.2 5.4 24.019.421.0
2018-Jul-08 08:00N 37°00' E 011°54'5814.4 270 / 51016.1 5.4 26.021.524.0
2018-Jul-08 04:00N 37°24' E 010°48'8015.7 310 / 131015.810.8 23.021.525.0
2018-Jul-07 22:55N 37°38' E 009°09'6015.3
2018-Jul-07 19:00N 37°30' E 007°54'6215.6 070 / 61017.6 5.4 25.020.425.0
2018-Jul-07 15:00N 37°24' E 006°36'10114.4 080 / 141018.610.8 27.020.725.0
2018-Jul-07 08:00N 37°12' E 004°30'4816.1 100 / 221017.9 5.4 26.019.025.0
2018-Jul-07 05:00N 37°06' E 003°30'2713.2 090 / 201016.010.8 26.022.324.0
2018-Jul-07 02:57N 37°02' E 002°57'715.3
2018-Jul-07 02:30N 37°01' E 002°48'815.3
2018-Jul-07 01:59N 36°59' E 002°38'815.5
2018-Jul-07 01:26N 36°57' E 002°28'715.5
2018-Jul-07 01:00N 36°56' E 002°20'  

Dump ship's entire track history